createdAt,value
2019-05-22T00:01:17.205Z,75.20
2019-05-22T00:03:47.657Z,75.40
2019-05-22T00:06:17.706Z,75.30
2019-05-22T00:08:48.276Z,75.50
2019-05-22T00:11:17.581Z,75.80
2019-05-22T00:13:47.752Z,76.10
2019-05-22T00:16:19.532Z,76.20
2019-05-22T00:18:50.359Z,76.10
2019-05-22T00:21:20.665Z,75.90
2019-05-22T00:23:52.296Z,75.90
2019-05-22T00:26:22.207Z,75.90
2019-05-22T00:28:51.487Z,75.80
2019-05-22T00:31:21.218Z,75.70
2019-05-22T00:33:50.475Z,75.70
2019-05-22T00:36:20.787Z,75.80
2019-05-22T00:38:50.164Z,76.00
2019-05-22T00:41:20.938Z,76.00
2019-05-22T00:43:51.729Z,75.90
2019-05-22T00:46:22.100Z,75.90
2019-05-22T00:48:52.218Z,75.80
2019-05-22T00:51:23.126Z,75.90
2019-05-22T00:54:10.140Z,75.80
2019-05-22T00:56:53.047Z,75.80
2019-05-22T00:59:28.835Z,75.80
2019-05-22T01:01:59.137Z,75.90
2019-05-22T01:04:38.802Z,76.00
2019-05-22T01:07:13.430Z,76.00
2019-05-22T01:09:46.691Z,75.90
2019-05-22T01:12:19.556Z,75.90
2019-05-22T01:14:50.683Z,75.90
2019-05-22T01:17:22.102Z,75.80
2019-05-22T01:19:54.592Z,75.70
2019-05-22T01:22:24.069Z,75.70
2019-05-22T01:24:54.769Z,75.70
2019-05-22T01:27:26.130Z,75.70
2019-05-22T01:29:57.109Z,75.60
2019-05-22T01:32:43.006Z,75.60
2019-05-22T01:35:13.869Z,75.60
2019-05-22T01:37:44.187Z,75.60
2019-05-22T01:40:20.326Z,75.60
2019-05-22T01:42:52.147Z,75.70
2019-05-22T01:45:22.688Z,75.80
2019-05-22T01:47:54.210Z,75.90
2019-05-22T01:50:38.317Z,75.90
2019-05-22T01:53:08.142Z,75.90
2019-05-22T01:55:38.268Z,76.00
2019-05-22T01:58:08.868Z,76.10
2019-05-22T02:00:39.443Z,76.10
2019-05-22T02:03:10.126Z,76.20
2019-05-22T02:05:38.897Z,76.30
2019-05-22T02:08:09.126Z,76.40
2019-05-22T02:10:40.129Z,76.50
2019-05-22T02:13:11.111Z,76.70
2019-05-22T02:15:41.591Z,76.70
2019-05-22T02:18:13.335Z,76.70
2019-05-22T02:20:42.683Z,76.80
2019-05-22T02:23:12.549Z,76.90
2019-05-22T02:25:41.714Z,76.80
2019-05-22T02:28:12.279Z,76.90
2019-05-22T02:30:43.334Z,77.20
2019-05-22T02:33:14.129Z,77.40
2019-05-22T02:35:43.154Z,77.30
2019-05-22T02:38:12.207Z,77.30
2019-05-22T02:40:42.760Z,77.50
2019-05-22T02:43:13.014Z,77.50
2019-05-22T02:45:41.918Z,77.50
2019-05-22T02:48:12.979Z,77.80
2019-05-22T02:50:41.962Z,77.80
2019-05-22T02:53:15.246Z,78.00
2019-05-22T02:55:44.205Z,78.00
2019-05-22T02:58:13.766Z,78.10
2019-05-22T03:01:05.468Z,78.00
2019-05-22T03:03:36.497Z,78.10
2019-05-22T03:06:08.850Z,78.30
2019-05-22T03:08:58.588Z,78.20
2019-05-22T03:11:35.237Z,78.40
2019-05-22T03:14:07.811Z,78.30
2019-05-22T03:16:51.718Z,78.10
2019-05-22T03:19:24.014Z,78.40
2019-05-22T03:21:52.735Z,78.40
2019-05-22T03:24:21.949Z,78.20
2019-05-22T03:26:51.735Z,78.10
2019-05-22T03:29:24.063Z,78.10
2019-05-22T03:31:52.808Z,78.10
2019-05-22T03:34:22.753Z,78.00
2019-05-22T03:36:52.297Z,77.90
2019-05-22T03:39:21.236Z,77.70
2019-05-22T03:41:50.095Z,77.70
2019-05-22T03:44:19.544Z,77.70
2019-05-22T03:46:48.619Z,77.70
2019-05-22T03:49:29.990Z,77.70
2019-05-22T03:51:52.788Z,77.70
2019-05-22T03:54:22.049Z,77.70
2019-05-22T03:56:50.486Z,77.70
2019-05-22T03:59:19.534Z,77.80
2019-05-22T04:01:47.988Z,77.90
2019-05-22T04:04:20.185Z,77.90
2019-05-22T04:06:51.940Z,78.00
2019-05-22T04:09:23.218Z,77.90
2019-05-22T04:11:54.974Z,77.90
2019-05-22T04:14:26.861Z,77.80
2019-05-22T04:16:55.516Z,77.70
2019-05-22T04:19:24.516Z,77.70
2019-05-22T04:21:53.720Z,77.80
2019-05-22T04:24:22.450Z,77.90
2019-05-22T04:26:53.550Z,78.00
2019-05-22T04:29:22.499Z,78.10
2019-05-22T04:31:55.500Z,78.10
2019-05-22T04:34:24.260Z,78.00
2019-05-22T04:36:54.021Z,78.50
2019-05-22T04:39:26.006Z,78.50
2019-05-22T04:41:56.602Z,78.50
2019-05-22T04:44:26.429Z,78.60
2019-05-22T04:46:56.228Z,78.50
2019-05-22T04:49:26.166Z,78.50
2019-05-22T04:51:55.763Z,78.50
2019-05-22T04:54:24.735Z,78.50
2019-05-22T04:56:53.451Z,78.40
2019-05-22T04:59:23.209Z,78.50
2019-05-22T05:01:51.623Z,78.60
2019-05-22T05:04:20.233Z,78.70
2019-05-22T05:06:49.867Z,78.60
2019-05-22T05:09:19.409Z,78.70
2019-05-22T05:11:48.101Z,78.60
2019-05-22T05:14:17.087Z,78.60
2019-05-22T05:16:47.399Z,78.50
2019-05-22T05:19:15.890Z,78.40
2019-05-22T05:21:44.893Z,78.50
2019-05-22T05:24:14.000Z,78.50
2019-05-22T05:26:43.485Z,78.60
2019-05-22T05:29:26.469Z,78.60
2019-05-22T05:31:55.158Z,78.60
2019-05-22T05:34:48.506Z,78.10
2019-05-22T05:37:19.032Z,78.10
2019-05-22T05:39:50.580Z,77.90
2019-05-22T05:42:19.240Z,77.90
2019-05-22T05:44:47.671Z,77.80
2019-05-22T05:47:17.456Z,77.80
2019-05-22T05:49:47.254Z,77.70
2019-05-22T05:52:17.134Z,77.70
2019-05-22T05:54:46.102Z,77.50
2019-05-22T05:57:34.150Z,77.60
2019-05-22T06:00:05.583Z,77.60
2019-05-22T06:02:34.451Z,77.50
2019-05-22T06:05:04.812Z,77.60
2019-05-22T06:07:33.486Z,77.80
2019-05-22T06:10:28.445Z,77.90
2019-05-22T06:12:57.770Z,78.20
2019-05-22T06:15:45.883Z,78.40
2019-05-22T06:18:24.201Z,78.50
2019-05-22T06:21:03.165Z,78.40
2019-05-22T06:23:31.837Z,78.30
2019-05-22T06:26:02.454Z,78.30
2019-05-22T06:28:37.782Z,78.00
2019-05-22T06:31:10.505Z,77.80
2019-05-22T06:33:39.378Z,77.70
2019-05-22T06:36:13.852Z,77.40
2019-05-22T06:38:57.730Z,77.20
2019-05-22T06:41:28.390Z,76.90
2019-05-22T06:44:20.116Z,77.10
2019-05-22T06:46:49.079Z,77.10
2019-05-22T06:49:36.266Z,76.90
2019-05-22T06:52:06.663Z,77.10
2019-05-22T06:54:35.478Z,76.90
2019-05-22T06:57:06.450Z,76.70
2019-05-22T06:59:34.998Z,76.40
2019-05-22T07:02:04.187Z,76.50
2019-05-22T07:04:33.464Z,76.40
2019-05-22T07:07:03.419Z,76.20
2019-05-22T07:09:32.891Z,75.60
2019-05-22T07:12:01.594Z,75.40
2019-05-22T07:14:31.864Z,75.10
2019-05-22T07:17:01.564Z,75.60
2019-05-22T07:19:30.075Z,75.30
2019-05-22T07:21:58.765Z,74.80
2019-05-22T07:24:27.896Z,74.60
2019-05-22T07:27:00.448Z,74.30
2019-05-22T07:29:29.157Z,74.10
2019-05-22T07:32:02.340Z,73.70
2019-05-22T07:34:31.267Z,73.50
2019-05-22T07:36:59.733Z,72.90
2019-05-22T07:39:28.519Z,72.70
2019-05-22T07:41:57.145Z,72.40
2019-05-22T07:44:25.978Z,72.10
2019-05-22T07:46:55.041Z,72.10
2019-05-22T07:49:23.626Z,72.40
2019-05-22T07:52:01.233Z,72.50
2019-05-22T07:54:23.821Z,72.00
2019-05-22T07:56:53.069Z,72.00
2019-05-22T07:59:22.012Z,71.70
2019-05-22T08:01:51.246Z,72.00
2019-05-22T08:04:20.883Z,71.60
2019-05-22T08:06:49.353Z,71.30
2019-05-22T08:09:20.015Z,70.70
2019-05-22T08:11:48.439Z,70.70
2019-05-22T08:14:18.672Z,71.00
2019-05-22T08:16:48.112Z,70.90
2019-05-22T08:19:17.094Z,71.20
2019-05-22T08:21:46.057Z,72.50
2019-05-22T08:24:15.168Z,72.70
2019-05-22T08:26:53.951Z,73.00
2019-05-22T08:29:15.112Z,73.50
2019-05-22T08:31:44.432Z,73.70
2019-05-22T08:34:14.225Z,73.10
2019-05-22T08:36:43.008Z,73.20
2019-05-22T08:39:12.948Z,73.50
2019-05-22T08:41:43.509Z,73.50
2019-05-22T08:44:16.616Z,72.90
2019-05-22T08:46:45.364Z,72.60
2019-05-22T08:49:14.478Z,72.30
2019-05-22T08:51:42.962Z,72.70
2019-05-22T08:54:12.965Z,72.70
2019-05-22T08:56:45.986Z,72.30
2019-05-22T08:59:19.353Z,72.00
2019-05-22T09:01:46.602Z,72.10
2019-05-22T09:04:16.414Z,72.10
2019-05-22T09:06:44.807Z,72.00
2019-05-22T09:09:13.434Z,71.80
2019-05-22T09:11:42.376Z,71.80
2019-05-22T09:14:11.787Z,72.10
2019-05-22T09:16:40.526Z,71.90
2019-05-22T09:19:10.024Z,72.30
2019-05-22T09:21:40.667Z,72.40
2019-05-22T09:24:13.063Z,72.00
2019-05-22T09:26:42.013Z,72.00
2019-05-22T09:29:10.678Z,71.30
2019-05-22T09:31:39.542Z,71.50
2019-05-22T09:34:09.270Z,71.70
2019-05-22T09:36:38.388Z,72.20
2019-05-22T09:39:07.591Z,71.90
2019-05-22T09:41:36.397Z,71.70
2019-05-22T09:44:05.073Z,71.50
2019-05-22T09:46:34.609Z,71.90
2019-05-22T09:49:03.101Z,71.90
2019-05-22T09:51:33.459Z,71.70
2019-05-22T09:54:03.373Z,71.00
2019-05-22T09:56:32.237Z,71.00
2019-05-22T09:59:01.519Z,70.80
2019-05-22T10:01:30.313Z,71.10
2019-05-22T10:03:58.933Z,70.40
2019-05-22T10:06:27.871Z,69.70
2019-05-22T10:08:56.282Z,70.10
2019-05-22T10:11:25.160Z,70.40
2019-05-22T10:13:54.149Z,70.10
2019-05-22T10:16:23.282Z,69.10
2019-05-22T10:18:53.616Z,68.60
2019-05-22T10:21:22.977Z,68.50
2019-05-22T10:23:51.462Z,68.50
2019-05-22T10:26:20.569Z,68.30
2019-05-22T10:28:49.363Z,68.50
2019-05-22T10:31:18.032Z,67.70
2019-05-22T10:33:51.246Z,67.70
2019-05-22T10:36:17.720Z,67.70
2019-05-22T10:38:46.113Z,66.80
2019-05-22T10:41:16.094Z,67.60
2019-05-22T10:43:45.209Z,67.60
2019-05-22T10:46:13.874Z,67.60
2019-05-22T10:48:42.785Z,67.50
2019-05-22T10:51:11.850Z,67.50
2019-05-22T10:53:41.059Z,67.30
2019-05-22T10:56:09.622Z,67.40
2019-05-22T10:58:38.428Z,67.00
2019-05-22T11:01:09.033Z,66.10
2019-05-22T11:03:37.864Z,65.70
2019-05-22T11:06:07.927Z,65.40
2019-05-22T11:08:36.509Z,65.30
2019-05-22T11:11:05.864Z,65.40
2019-05-22T11:13:34.709Z,65.10
2019-05-22T11:16:04.006Z,65.90
2019-05-22T11:18:33.297Z,65.60
2019-05-22T11:21:01.978Z,65.30
2019-05-22T11:23:30.854Z,64.40
2019-05-22T11:25:59.361Z,64.90
2019-05-22T11:28:29.374Z,63.70
2019-05-22T11:30:58.606Z,63.90
2019-05-22T11:33:27.200Z,64.30
2019-05-22T11:35:56.473Z,63.60
2019-05-22T11:38:25.491Z,62.50
2019-05-22T11:40:54.478Z,63.60
2019-05-22T11:43:22.884Z,62.00
2019-05-22T11:45:51.771Z,61.20
2019-05-22T11:48:20.771Z,60.60
2019-05-22T11:50:50.370Z,62.10
2019-05-22T11:53:18.945Z,62.60
2019-05-22T11:55:47.683Z,61.60
2019-05-22T11:58:17.661Z,61.70
2019-05-22T12:00:46.422Z,61.20
2019-05-22T12:03:15.714Z,60.60
2019-05-22T12:05:45.390Z,61.00
2019-05-22T12:08:14.345Z,61.50
2019-05-22T12:10:42.958Z,60.30
2019-05-22T12:13:12.318Z,60.10
2019-05-22T12:15:41.104Z,60.30
2019-05-22T12:18:11.225Z,59.70
2019-05-22T12:20:39.980Z,59.90
2019-05-22T12:23:08.480Z,60.10
2019-05-22T12:25:37.430Z,59.10
2019-05-22T12:28:05.942Z,58.10
2019-05-22T12:30:35.386Z,59.00
2019-05-22T12:33:12.737Z,59.70
2019-05-22T12:35:36.201Z,58.90
2019-05-22T12:38:07.018Z,59.60
2019-05-22T12:40:35.750Z,59.50
2019-05-22T12:43:05.383Z,59.00
2019-05-22T12:45:34.625Z,59.90
2019-05-22T12:48:04.248Z,59.80
2019-05-22T12:50:33.762Z,60.10
2019-05-22T12:53:05.869Z,59.10
2019-05-22T12:55:35.064Z,59.80
2019-05-22T12:58:05.118Z,58.70
2019-05-22T13:00:35.036Z,58.80
2019-05-22T13:03:04.854Z,58.40
2019-05-22T13:05:36.238Z,58.20
2019-05-22T13:08:06.108Z,56.80
2019-05-22T13:10:36.077Z,56.60
2019-05-22T13:13:05.052Z,58.40
2019-05-22T13:15:35.859Z,57.70
2019-05-22T13:18:06.941Z,57.60
2019-05-22T13:20:43.352Z,57.70
2019-05-22T13:23:09.427Z,56.80
2019-05-22T13:25:39.649Z,58.10
2019-05-22T13:28:10.848Z,56.90
2019-05-22T13:30:42.488Z,56.80
2019-05-22T13:33:16.193Z,56.70
2019-05-22T13:35:45.553Z,57.50
2019-05-22T13:38:15.258Z,58.00
2019-05-22T13:40:45.435Z,56.90
2019-05-22T13:43:15.380Z,57.10
2019-05-22T13:45:44.240Z,56.20
2019-05-22T13:48:13.076Z,56.30
2019-05-22T13:50:43.187Z,57.60
2019-05-22T13:53:16.066Z,56.70
2019-05-22T13:55:45.617Z,56.60
2019-05-22T13:58:15.897Z,56.60
2019-05-22T14:00:45.105Z,56.00
2019-05-22T14:03:14.961Z,54.90
2019-05-22T14:05:44.875Z,55.70
2019-05-22T14:08:14.017Z,55.00
2019-05-22T14:10:43.783Z,54.60
2019-05-22T14:13:13.124Z,53.90
2019-05-22T14:15:52.149Z,54.00
2019-05-22T14:18:13.273Z,54.40
2019-05-22T14:20:41.687Z,53.80
2019-05-22T14:23:10.159Z,54.20
2019-05-22T14:25:38.736Z,53.10
2019-05-22T14:28:08.627Z,53.40
2019-05-22T14:30:38.371Z,53.00
2019-05-22T14:33:07.014Z,52.40
2019-05-22T14:35:47.684Z,51.60
2019-05-22T14:38:09.388Z,51.30
2019-05-22T14:40:38.402Z,52.20
2019-05-22T14:43:08.591Z,52.20
2019-05-22T14:45:37.853Z,53.40
2019-05-22T14:48:06.785Z,52.20
2019-05-22T14:50:35.627Z,52.20
2019-05-22T14:53:04.798Z,52.10
2019-05-22T14:55:34.791Z,51.20
2019-05-22T14:58:05.223Z,51.70
2019-05-22T15:00:34.511Z,51.50
2019-05-22T15:03:03.657Z,51.70
2019-05-22T15:05:32.383Z,51.30
2019-05-22T15:08:01.209Z,50.70
2019-05-22T15:10:30.262Z,51.10
2019-05-22T15:12:59.146Z,51.00
2019-05-22T15:15:28.527Z,49.10
2019-05-22T15:17:57.317Z,49.30
2019-05-22T15:20:28.194Z,49.60
2019-05-22T15:22:57.267Z,49.40
2019-05-22T15:25:27.468Z,49.70
2019-05-22T15:27:56.848Z,49.10
2019-05-22T15:30:25.344Z,49.10
2019-05-22T15:32:54.036Z,49.50
2019-05-22T15:35:23.284Z,49.10
2019-05-22T15:37:53.629Z,49.00
2019-05-22T15:40:24.243Z,48.90
2019-05-22T15:42:53.328Z,49.50
2019-05-22T15:45:27.511Z,49.10
2019-05-22T15:48:01.438Z,49.60
2019-05-22T15:50:33.878Z,50.80
2019-05-22T15:53:08.923Z,50.70
2019-05-22T15:55:38.221Z,49.90
2019-05-22T15:58:08.700Z,49.20
2019-05-22T16:00:39.194Z,49.20
2019-05-22T16:03:12.122Z,49.70
2019-05-22T16:05:41.866Z,49.50
2019-05-22T16:08:10.644Z,49.70
2019-05-22T16:10:41.172Z,49.40
2019-05-22T16:13:13.386Z,49.00
2019-05-22T16:15:43.923Z,49.10
2019-05-22T16:18:13.727Z,49.50
2019-05-22T16:20:43.832Z,49.80
2019-05-22T16:23:12.895Z,49.40
2019-05-22T16:25:42.738Z,49.80
2019-05-22T16:28:13.565Z,49.70
2019-05-22T16:30:43.359Z,50.30
2019-05-22T16:33:14.225Z,50.40
2019-05-22T16:35:43.786Z,50.60
2019-05-22T16:38:12.924Z,50.10
2019-05-22T16:40:44.461Z,50.00
2019-05-22T16:43:13.166Z,50.30
2019-05-22T16:45:43.076Z,50.80
2019-05-22T16:48:27.278Z,51.00
2019-05-22T16:50:42.907Z,51.00
2019-05-22T16:53:13.616Z,51.40
2019-05-22T16:55:44.213Z,51.50
2019-05-22T16:58:13.310Z,51.20
2019-05-22T17:00:44.376Z,50.50
2019-05-22T17:03:16.369Z,50.40
2019-05-22T17:05:45.891Z,50.70
2019-05-22T17:08:14.931Z,50.60
2019-05-22T17:10:43.789Z,50.90
2019-05-22T17:13:14.734Z,50.50
2019-05-22T17:15:43.841Z,50.50
2019-05-22T17:18:14.910Z,50.70
2019-05-22T17:20:44.938Z,50.30
2019-05-22T17:23:13.812Z,50.00
2019-05-22T17:25:43.304Z,49.80
2019-05-22T17:28:13.126Z,49.70
2019-05-22T17:30:42.097Z,49.30
2019-05-22T17:33:11.906Z,49.60
2019-05-22T17:35:42.006Z,49.40
2019-05-22T17:38:11.342Z,50.10
2019-05-22T17:40:41.287Z,50.30
2019-05-22T17:43:11.346Z,50.60
2019-05-22T17:45:43.289Z,50.20
2019-05-22T17:48:14.473Z,50.10
2019-05-22T17:50:44.403Z,50.00
2019-05-22T17:53:13.145Z,50.00
2019-05-22T17:55:42.452Z,50.40
2019-05-22T17:58:12.060Z,50.40
2019-05-22T18:00:42.760Z,50.40
2019-05-22T18:03:12.003Z,50.60
2019-05-22T18:05:41.373Z,50.90
2019-05-22T18:08:10.672Z,50.90
2019-05-22T18:10:42.113Z,50.40
2019-05-22T18:13:12.068Z,51.20
2019-05-22T18:15:41.946Z,51.90
2019-05-22T18:18:11.470Z,51.40
2019-05-22T18:20:43.675Z,51.30
2019-05-22T18:23:11.613Z,52.40
2019-05-22T18:25:40.519Z,52.70
2019-05-22T18:28:10.494Z,52.30
2019-05-22T18:30:47.890Z,52.50
2019-05-22T18:33:17.335Z,53.10
2019-05-22T18:35:45.912Z,52.50
2019-05-22T18:38:14.838Z,52.40
2019-05-22T18:40:43.257Z,51.90
2019-05-22T18:43:11.762Z,52.00
2019-05-22T18:45:40.590Z,53.60
2019-05-22T18:48:09.999Z,54.20
2019-05-22T18:50:38.437Z,54.40
2019-05-22T18:53:07.618Z,55.60
2019-05-22T18:55:36.561Z,55.70
2019-05-22T18:58:05.798Z,55.90
2019-05-22T19:00:34.596Z,55.90
2019-05-22T19:03:03.673Z,56.00
2019-05-22T19:05:33.548Z,56.80
2019-05-22T19:08:02.357Z,57.50
2019-05-22T19:10:31.589Z,58.20
2019-05-22T19:13:00.316Z,58.60
2019-05-22T19:15:29.473Z,59.00
2019-05-22T19:17:58.860Z,59.20
2019-05-22T19:20:27.568Z,59.60
2019-05-22T19:23:00.933Z,59.80
2019-05-22T19:25:27.163Z,60.10
2019-05-22T19:27:55.650Z,60.40
2019-05-22T19:30:24.597Z,60.40
2019-05-22T19:32:53.711Z,60.10
2019-05-22T19:35:22.301Z,60.80
2019-05-22T19:37:51.025Z,61.10
2019-05-22T19:40:20.086Z,61.40
2019-05-22T19:42:49.226Z,61.60
2019-05-22T19:45:18.757Z,62.10
2019-05-22T19:47:52.727Z,62.30
2019-05-22T19:50:23.896Z,62.50
2019-05-22T19:52:53.715Z,62.90
2019-05-22T19:55:24.157Z,63.20
2019-05-22T19:57:53.936Z,63.40
2019-05-22T20:00:22.928Z,63.90
2019-05-22T20:02:52.707Z,64.00
2019-05-22T20:05:22.746Z,64.20
2019-05-22T20:07:51.894Z,64.40
2019-05-22T20:10:21.282Z,64.60
2019-05-22T20:12:49.859Z,64.70
2019-05-22T20:15:19.065Z,64.80
2019-05-22T20:17:49.563Z,65.00
2019-05-22T20:20:20.677Z,65.00
2019-05-22T20:22:50.055Z,65.10
2019-05-22T20:25:20.406Z,65.10
2019-05-22T20:27:50.558Z,64.90
2019-05-22T20:30:20.536Z,65.10
2019-05-22T20:32:49.276Z,65.20
2019-05-22T20:35:18.824Z,65.30
2019-05-22T20:37:48.253Z,65.50
2019-05-22T20:40:19.551Z,65.50
2019-05-22T20:42:48.017Z,65.20
2019-05-22T20:45:19.041Z,65.10
2019-05-22T20:47:49.376Z,65.50
2019-05-22T20:50:19.129Z,65.60
2019-05-22T20:52:49.191Z,65.70
2019-05-22T20:55:19.971Z,65.80
2019-05-22T20:57:50.613Z,66.10
2019-05-22T21:00:21.314Z,66.50
2019-05-22T21:02:53.197Z,66.50
2019-05-22T21:05:22.925Z,66.60
2019-05-22T21:07:54.464Z,66.60
2019-05-22T21:10:23.593Z,66.90
2019-05-22T21:12:53.497Z,67.30
2019-05-22T21:15:22.274Z,67.10
2019-05-22T21:17:53.094Z,67.30
2019-05-22T21:20:24.621Z,67.40
2019-05-22T21:22:53.660Z,67.70
2019-05-22T21:25:22.615Z,67.60
2019-05-22T21:27:51.856Z,67.60
2019-05-22T21:30:21.520Z,67.60
2019-05-22T21:32:50.117Z,67.80
2019-05-22T21:35:19.901Z,68.00
2019-05-22T21:37:48.961Z,68.20
2019-05-22T21:40:20.161Z,68.60
2019-05-22T21:42:50.980Z,69.10
2019-05-22T21:45:20.767Z,68.90
2019-05-22T21:47:49.395Z,68.80
2019-05-22T21:50:19.095Z,69.00
2019-05-22T21:52:47.839Z,69.10
2019-05-22T21:55:18.394Z,69.10
2019-05-22T21:57:47.441Z,69.20
2019-05-22T22:00:26.735Z,69.10
2019-05-22T22:02:57.012Z,69.20
2019-05-22T22:05:25.439Z,69.40
2019-05-22T22:07:53.981Z,69.50
2019-05-22T22:10:22.746Z,69.60
2019-05-22T22:12:54.066Z,69.50
2019-05-22T22:15:22.606Z,69.60
2019-05-22T22:17:52.262Z,70.10
2019-05-22T22:20:22.497Z,70.20
2019-05-22T22:22:51.588Z,69.90
2019-05-22T22:25:23.958Z,69.90
2019-05-22T22:27:53.218Z,70.00
2019-05-22T22:30:25.249Z,70.10
2019-05-22T22:32:55.907Z,70.10
2019-05-22T22:35:24.474Z,70.30
2019-05-22T22:37:53.659Z,70.10
2019-05-22T22:40:24.338Z,70.40
2019-05-22T22:42:55.341Z,70.20
2019-05-22T22:45:27.942Z,70.20
2019-05-22T22:47:57.315Z,70.30
2019-05-22T22:50:27.026Z,70.30
2019-05-22T22:52:56.441Z,70.20
2019-05-22T22:55:26.984Z,70.30
2019-05-22T22:57:55.880Z,70.40
2019-05-22T23:00:26.770Z,70.30
2019-05-22T23:02:58.870Z,70.40
2019-05-22T23:05:27.621Z,70.80
2019-05-22T23:07:57.000Z,70.60
2019-05-22T23:10:26.886Z,70.70
2019-05-22T23:12:56.793Z,70.80
2019-05-22T23:15:26.931Z,70.70
2019-05-22T23:17:55.777Z,70.80
2019-05-22T23:20:23.401Z,70.80
2019-05-22T23:22:52.552Z,70.80
2019-05-22T23:25:21.133Z,70.80
2019-05-22T23:27:50.731Z,71.00
2019-05-22T23:30:20.962Z,71.20
2019-05-22T23:32:51.105Z,71.70
2019-05-22T23:35:22.753Z,71.70
2019-05-22T23:37:51.638Z,71.90
2019-05-22T23:40:23.191Z,71.90
2019-05-22T23:42:52.451Z,72.00
2019-05-22T23:45:22.982Z,71.90
2019-05-22T23:48:00.972Z,72.00
2019-05-22T23:50:31.937Z,72.10
2019-05-22T23:53:00.875Z,72.10
2019-05-22T23:55:30.437Z,72.10
2019-05-22T23:57:59.518Z,72.30
